sensor_id;sensor_type;location;lat;lon;timestamp;P1;durP1;ratioP1;P2;durP2;ratioP2
73650;SDS011;61944;52.538;6.108;2023-05-10T00:00:21;13.45;;;7.70;;
73650;SDS011;61944;52.538;6.108;2023-05-10T00:02:48;12.77;;;7.93;;
73650;SDS011;61944;52.538;6.108;2023-05-10T00:05:14;14.88;;;8.05;;
73650;SDS011;61944;52.538;6.108;2023-05-10T00:07:39;14.60;;;8.95;;
73650;SDS011;61944;52.538;6.108;2023-05-10T00:10:05;14.95;;;8.30;;
73650;SDS011;61944;52.538;6.108;2023-05-10T00:12:31;13.40;;;7.55;;
73650;SDS011;61944;52.538;6.108;2023-05-10T00:14:56;14.38;;;8.20;;
73650;SDS011;61944;52.538;6.108;2023-05-10T00:17:22;17.38;;;9.88;;
73650;SDS011;61944;52.538;6.108;2023-05-10T00:19:47;14.38;;;8.10;;
73650;SDS011;61944;52.538;6.108;2023-05-10T00:22:16;18.23;;;8.50;;
73650;SDS011;61944;52.538;6.108;2023-05-10T00:24:41;16.08;;;8.40;;
73650;SDS011;61944;52.538;6.108;2023-05-10T00:27:06;15.30;;;8.85;;
73650;SDS011;61944;52.538;6.108;2023-05-10T00:29:32;15.30;;;8.82;;
73650;SDS011;61944;52.538;6.108;2023-05-10T00:31:58;17.17;;;8.75;;
73650;SDS011;61944;52.538;6.108;2023-05-10T00:34:24;15.45;;;8.65;;
73650;SDS011;61944;52.538;6.108;2023-05-10T00:36:49;17.33;;;8.65;;
73650;SDS011;61944;52.538;6.108;2023-05-10T00:39:15;14.52;;;8.25;;
73650;SDS011;61944;52.538;6.108;2023-05-10T00:41:40;14.95;;;8.77;;
73650;SDS011;61944;52.538;6.108;2023-05-10T00:44:05;13.82;;;8.23;;
73650;SDS011;61944;52.538;6.108;2023-05-10T00:46:31;15.05;;;8.90;;
73650;SDS011;61944;52.538;6.108;2023-05-10T00:48:57;15.13;;;7.80;;
73650;SDS011;61944;52.538;6.108;2023-05-10T00:51:22;17.40;;;9.18;;
73650;SDS011;61944;52.538;6.108;2023-05-10T00:53:48;15.50;;;7.75;;
73650;SDS011;61944;52.538;6.108;2023-05-10T00:56:15;16.83;;;8.88;;
73650;SDS011;61944;52.538;6.108;2023-05-10T00:58:41;16.45;;;8.85;;
73650;SDS011;61944;52.538;6.108;2023-05-10T01:01:07;15.88;;;8.98;;
73650;SDS011;61944;52.538;6.108;2023-05-10T01:03:33;17.42;;;9.45;;
73650;SDS011;61944;52.538;6.108;2023-05-10T01:05:58;16.52;;;9.30;;
73650;SDS011;61944;52.538;6.108;2023-05-10T01:08:24;17.38;;;9.65;;
73650;SDS011;61944;52.538;6.108;2023-05-10T01:10:51;20.52;;;10.25;;
73650;SDS011;61944;52.538;6.108;2023-05-10T01:13:39;19.17;;;9.77;;
73650;SDS011;61944;52.538;6.108;2023-05-10T01:16:04;17.75;;;9.40;;
73650;SDS011;61944;52.538;6.108;2023-05-10T01:18:32;15.35;;;8.57;;
73650;SDS011;61944;52.538;6.108;2023-05-10T01:21:48;16.77;;;9.35;;
73650;SDS011;61944;52.538;6.108;2023-05-10T01:34:42;18.38;;;9.85;;
73650;SDS011;61944;52.538;6.108;2023-05-10T01:37:15;21.38;;;10.43;;
73650;SDS011;61944;52.538;6.108;2023-05-10T01:39:55;20.02;;;10.07;;
73650;SDS011;61944;52.538;6.108;2023-05-10T01:42:27;24.40;;;11.88;;
73650;SDS011;61944;52.538;6.108;2023-05-10T01:45:00;20.50;;;10.32;;
73650;SDS011;61944;52.538;6.108;2023-05-10T01:50:24;20.13;;;10.82;;
73650;SDS011;61944;52.538;6.108;2023-05-10T01:52:54;18.35;;;9.88;;
73650;SDS011;61944;52.538;6.108;2023-05-10T01:55:23;20.50;;;10.63;;
73650;SDS011;61944;52.538;6.108;2023-05-10T01:57:51;23.92;;;11.25;;
73650;SDS011;61944;52.538;6.108;2023-05-10T02:00:21;18.52;;;11.35;;
73650;SDS011;61944;52.538;6.108;2023-05-10T02:02:48;19.00;;;10.63;;
73650;SDS011;61944;52.538;6.108;2023-05-10T02:05:16;20.30;;;10.43;;
73650;SDS011;61944;52.538;6.108;2023-05-10T02:07:43;20.13;;;10.25;;
73650;SDS011;61944;52.538;6.108;2023-05-10T02:10:10;22.15;;;10.82;;
73650;SDS011;61944;52.538;6.108;2023-05-10T02:12:42;20.10;;;10.73;;
73650;SDS011;61944;52.538;6.108;2023-05-10T02:15:10;20.77;;;10.82;;
73650;SDS011;61944;52.538;6.108;2023-05-10T02:17:38;17.83;;;10.30;;
73650;SDS011;61944;52.538;6.108;2023-05-10T02:20:05;23.60;;;11.40;;
73650;SDS011;61944;52.538;6.108;2023-05-10T02:22:32;16.92;;;9.63;;
73650;SDS011;61944;52.538;6.108;2023-05-10T02:25:00;27.52;;;11.73;;
73650;SDS011;61944;52.538;6.108;2023-05-10T02:27:27;17.60;;;9.07;;
73650;SDS011;61944;52.538;6.108;2023-05-10T02:29:54;21.55;;;11.70;;
73650;SDS011;61944;52.538;6.108;2023-05-10T02:32:22;23.33;;;10.77;;
73650;SDS011;61944;52.538;6.108;2023-05-10T02:34:49;21.20;;;11.15;;
73650;SDS011;61944;52.538;6.108;2023-05-10T02:37:17;23.60;;;11.57;;
73650;SDS011;61944;52.538;6.108;2023-05-10T02:39:45;24.35;;;11.55;;
73650;SDS011;61944;52.538;6.108;2023-05-10T02:42:13;22.00;;;11.88;;
73650;SDS011;61944;52.538;6.108;2023-05-10T02:44:43;22.73;;;11.60;;
73650;SDS011;61944;52.538;6.108;2023-05-10T02:47:14;18.58;;;8.68;;
73650;SDS011;61944;52.538;6.108;2023-05-10T02:49:39;22.13;;;12.43;;
73650;SDS011;61944;52.538;6.108;2023-05-10T02:52:05;22.52;;;11.35;;
73650;SDS011;61944;52.538;6.108;2023-05-10T02:54:35;26.55;;;12.02;;
73650;SDS011;61944;52.538;6.108;2023-05-10T02:57:06;20.20;;;11.07;;
73650;SDS011;61944;52.538;6.108;2023-05-10T02:59:34;22.30;;;10.18;;
73650;SDS011;61944;52.538;6.108;2023-05-10T03:02:00;19.42;;;9.75;;
73650;SDS011;61944;52.538;6.108;2023-05-10T03:04:26;24.02;;;11.23;;
73650;SDS011;61944;52.538;6.108;2023-05-10T03:06:52;20.23;;;10.48;;
73650;SDS011;61944;52.538;6.108;2023-05-10T03:09:17;19.73;;;10.20;;
73650;SDS011;61944;52.538;6.108;2023-05-10T03:12:27;19.92;;;10.35;;
73650;SDS011;61944;52.538;6.108;2023-05-10T03:17:41;21.55;;;10.43;;
73650;SDS011;61944;52.538;6.108;2023-05-10T03:20:37;23.73;;;11.18;;
73650;SDS011;61944;52.538;6.108;2023-05-10T03:23:15;23.75;;;11.13;;
73650;SDS011;61944;52.538;6.108;2023-05-10T03:25:44;25.70;;;11.32;;
73650;SDS011;61944;52.538;6.108;2023-05-10T03:28:12;26.05;;;11.57;;
73650;SDS011;61944;52.538;6.108;2023-05-10T03:30:40;24.52;;;10.60;;
73650;SDS011;61944;52.538;6.108;2023-05-10T03:33:07;19.88;;;10.95;;
73650;SDS011;61944;52.538;6.108;2023-05-10T03:35:33;23.73;;;11.63;;
73650;SDS011;61944;52.538;6.108;2023-05-10T03:37:59;19.42;;;9.93;;
73650;SDS011;61944;52.538;6.108;2023-05-10T03:40:25;26.83;;;11.32;;
73650;SDS011;61944;52.538;6.108;2023-05-10T03:42:51;18.65;;;9.57;;
73650;SDS011;61944;52.538;6.108;2023-05-10T03:45:16;25.75;;;11.75;;
73650;SDS011;61944;52.538;6.108;2023-05-10T03:47:42;19.20;;;9.65;;
73650;SDS011;61944;52.538;6.108;2023-05-10T03:50:07;22.38;;;10.35;;
73650;SDS011;61944;52.538;6.108;2023-05-10T03:52:33;15.95;;;8.65;;
73650;SDS011;61944;52.538;6.108;2023-05-10T03:54:58;17.27;;;9.65;;
73650;SDS011;61944;52.538;6.108;2023-05-10T03:57:24;17.10;;;7.47;;
73650;SDS011;61944;52.538;6.108;2023-05-10T03:59:49;17.65;;;8.35;;
73650;SDS011;61944;52.538;6.108;2023-05-10T04:02:15;14.00;;;8.07;;
73650;SDS011;61944;52.538;6.108;2023-05-10T04:04:40;16.02;;;8.05;;
73650;SDS011;61944;52.538;6.108;2023-05-10T04:07:05;18.85;;;8.93;;
73650;SDS011;61944;52.538;6.108;2023-05-10T04:09:31;13.50;;;7.05;;
73650;SDS011;61944;52.538;6.108;2023-05-10T04:11:58;13.10;;;6.63;;
73650;SDS011;61944;52.538;6.108;2023-05-10T04:14:23;14.13;;;7.18;;
73650;SDS011;61944;52.538;6.108;2023-05-10T04:16:49;13.23;;;6.78;;
73650;SDS011;61944;52.538;6.108;2023-05-10T04:19:14;10.55;;;6.45;;
73650;SDS011;61944;52.538;6.108;2023-05-10T04:21:40;13.77;;;6.82;;
73650;SDS011;61944;52.538;6.108;2023-05-10T04:24:05;12.13;;;6.68;;
73650;SDS011;61944;52.538;6.108;2023-05-10T04:26:31;12.68;;;5.45;;
73650;SDS011;61944;52.538;6.108;2023-05-10T04:28:56;14.40;;;7.15;;
73650;SDS011;61944;52.538;6.108;2023-05-10T04:31:21;12.98;;;7.50;;
73650;SDS011;61944;52.538;6.108;2023-05-10T04:33:47;12.90;;;6.57;;
73650;SDS011;61944;52.538;6.108;2023-05-10T04:36:12;11.65;;;6.45;;
73650;SDS011;61944;52.538;6.108;2023-05-10T04:38:37;12.45;;;7.05;;
73650;SDS011;61944;52.538;6.108;2023-05-10T04:41:03;9.60;;;6.07;;
73650;SDS011;61944;52.538;6.108;2023-05-10T04:43:30;13.20;;;6.72;;
73650;SDS011;61944;52.538;6.108;2023-05-10T04:45:58;13.40;;;5.97;;
73650;SDS011;61944;52.538;6.108;2023-05-10T04:48:24;13.02;;;6.75;;
73650;SDS011;61944;52.538;6.108;2023-05-10T04:50:49;13.18;;;7.57;;
73650;SDS011;61944;52.538;6.108;2023-05-10T04:53:15;13.82;;;7.15;;
73650;SDS011;61944;52.538;6.108;2023-05-10T04:55:40;11.13;;;5.97;;
73650;SDS011;61944;52.538;6.108;2023-05-10T04:58:05;11.40;;;6.03;;
73650;SDS011;61944;52.538;6.108;2023-05-10T05:00:31;16.90;;;8.57;;
73650;SDS011;61944;52.538;6.108;2023-05-10T05:02:58;19.10;;;8.15;;
73650;SDS011;61944;52.538;6.108;2023-05-10T05:05:23;13.60;;;7.35;;
73650;SDS011;61944;52.538;6.108;2023-05-10T05:07:49;15.05;;;7.93;;
73650;SDS011;61944;52.538;6.108;2023-05-10T05:10:14;19.25;;;9.35;;
73650;SDS011;61944;52.538;6.108;2023-05-10T05:12:40;17.42;;;8.70;;
73650;SDS011;61944;52.538;6.108;2023-05-10T05:15:05;13.30;;;7.72;;
73650;SDS011;61944;52.538;6.108;2023-05-10T05:17:31;15.60;;;8.55;;
73650;SDS011;61944;52.538;6.108;2023-05-10T05:19:56;18.27;;;8.93;;
73650;SDS011;61944;52.538;6.108;2023-05-10T05:22:22;18.92;;;9.82;;
73650;SDS011;61944;52.538;6.108;2023-05-10T05:24:53;17.77;;;9.88;;
73650;SDS011;61944;52.538;6.108;2023-05-10T05:27:19;21.60;;;10.80;;
73650;SDS011;61944;52.538;6.108;2023-05-10T05:29:52;16.15;;;9.55;;
73650;SDS011;61944;52.538;6.108;2023-05-10T05:32:21;21.92;;;10.52;;
73650;SDS011;61944;52.538;6.108;2023-05-10T05:34:48;15.80;;;8.05;;
73650;SDS011;61944;52.538;6.108;2023-05-10T05:37:17;19.25;;;9.63;;
73650;SDS011;61944;52.538;6.108;2023-05-10T05:39:44;16.90;;;8.85;;
73650;SDS011;61944;52.538;6.108;2023-05-10T05:42:10;19.90;;;8.82;;
73650;SDS011;61944;52.538;6.108;2023-05-10T05:44:36;24.88;;;10.63;;
73650;SDS011;61944;52.538;6.108;2023-05-10T05:47:01;24.42;;;10.85;;
73650;SDS011;61944;52.538;6.108;2023-05-10T05:49:27;17.52;;;9.68;;
73650;SDS011;61944;52.538;6.108;2023-05-10T05:51:53;19.00;;;9.40;;
73650;SDS011;61944;52.538;6.108;2023-05-10T05:54:18;20.45;;;9.43;;
73650;SDS011;61944;52.538;6.108;2023-05-10T05:56:43;19.67;;;10.77;;
73650;SDS011;61944;52.538;6.108;2023-05-10T05:59:09;20.35;;;10.73;;
73650;SDS011;61944;52.538;6.108;2023-05-10T06:01:35;20.83;;;10.07;;
73650;SDS011;61944;52.538;6.108;2023-05-10T06:04:00;17.67;;;9.27;;
73650;SDS011;61944;52.538;6.108;2023-05-10T06:06:26;15.88;;;8.45;;
73650;SDS011;61944;52.538;6.108;2023-05-10T06:08:51;16.23;;;9.18;;
73650;SDS011;61944;52.538;6.108;2023-05-10T06:11:17;20.45;;;9.18;;
73650;SDS011;61944;52.538;6.108;2023-05-10T06:13:42;22.52;;;8.82;;
73650;SDS011;61944;52.538;6.108;2023-05-10T06:16:08;20.13;;;9.57;;
73650;SDS011;61944;52.538;6.108;2023-05-10T06:18:33;22.20;;;10.18;;
73650;SDS011;61944;52.538;6.108;2023-05-10T06:20:59;20.98;;;9.90;;
73650;SDS011;61944;52.538;6.108;2023-05-10T06:23:25;23.83;;;10.75;;
73650;SDS011;61944;52.538;6.108;2023-05-10T06:25:51;20.77;;;10.55;;
73650;SDS011;61944;52.538;6.108;2023-05-10T06:28:17;18.92;;;8.82;;
73650;SDS011;61944;52.538;6.108;2023-05-10T06:30:42;24.45;;;10.63;;
73650;SDS011;61944;52.538;6.108;2023-05-10T06:33:08;20.77;;;10.23;;
73650;SDS011;61944;52.538;6.108;2023-05-10T06:35:33;18.38;;;9.82;;
73650;SDS011;61944;52.538;6.108;2023-05-10T06:37:59;21.42;;;9.65;;
73650;SDS011;61944;52.538;6.108;2023-05-10T06:40:24;21.08;;;9.25;;
73650;SDS011;61944;52.538;6.108;2023-05-10T06:42:50;20.77;;;9.60;;
73650;SDS011;61944;52.538;6.108;2023-05-10T06:45:15;19.50;;;9.48;;
73650;SDS011;61944;52.538;6.108;2023-05-10T06:47:41;21.77;;;10.90;;
73650;SDS011;61944;52.538;6.108;2023-05-10T06:50:07;19.00;;;10.25;;
73650;SDS011;61944;52.538;6.108;2023-05-10T06:52:33;23.58;;;12.05;;
73650;SDS011;61944;52.538;6.108;2023-05-10T06:54:59;20.10;;;8.43;;
73650;SDS011;61944;52.538;6.108;2023-05-10T06:57:25;20.55;;;9.07;;
73650;SDS011;61944;52.538;6.108;2023-05-10T06:59:53;21.50;;;10.30;;
73650;SDS011;61944;52.538;6.108;2023-05-10T07:02:20;20.38;;;9.88;;
73650;SDS011;61944;52.538;6.108;2023-05-10T07:04:46;19.55;;;9.82;;
73650;SDS011;61944;52.538;6.108;2023-05-10T07:07:12;16.45;;;8.80;;
73650;SDS011;61944;52.538;6.108;2023-05-10T07:09:39;20.88;;;8.90;;
73650;SDS011;61944;52.538;6.108;2023-05-10T07:12:04;18.33;;;7.68;;
73650;SDS011;61944;52.538;6.108;2023-05-10T07:14:29;18.75;;;8.70;;
73650;SDS011;61944;52.538;6.108;2023-05-10T07:16:55;21.65;;;8.63;;
73650;SDS011;61944;52.538;6.108;2023-05-10T07:19:21;19.05;;;7.95;;
73650;SDS011;61944;52.538;6.108;2023-05-10T07:21:46;18.80;;;8.88;;
73650;SDS011;61944;52.538;6.108;2023-05-10T07:24:12;18.30;;;8.68;;
73650;SDS011;61944;52.538;6.108;2023-05-10T07:26:37;14.70;;;7.53;;
73650;SDS011;61944;52.538;6.108;2023-05-10T07:29:03;13.02;;;6.85;;
73650;SDS011;61944;52.538;6.108;2023-05-10T07:31:28;13.93;;;7.28;;
73650;SDS011;61944;52.538;6.108;2023-05-10T07:33:54;12.80;;;6.90;;
73650;SDS011;61944;52.538;6.108;2023-05-10T07:36:19;15.32;;;7.28;;
73650;SDS011;61944;52.538;6.108;2023-05-10T07:38:45;16.50;;;6.75;;
73650;SDS011;61944;52.538;6.108;2023-05-10T07:41:11;15.27;;;7.35;;
73650;SDS011;61944;52.538;6.108;2023-05-10T07:43:37;12.20;;;6.55;;
73650;SDS011;61944;52.538;6.108;2023-05-10T07:46:02;12.40;;;6.93;;
73650;SDS011;61944;52.538;6.108;2023-05-10T07:48:27;13.30;;;6.57;;
73650;SDS011;61944;52.538;6.108;2023-05-10T07:50:53;10.43;;;5.75;;
73650;SDS011;61944;52.538;6.108;2023-05-10T07:53:18;13.85;;;6.40;;
73650;SDS011;61944;52.538;6.108;2023-05-10T07:55:44;13.20;;;6.07;;
73650;SDS011;61944;52.538;6.108;2023-05-10T07:58:10;11.73;;;5.65;;
73650;SDS011;61944;52.538;6.108;2023-05-10T08:00:35;14.05;;;6.85;;
73650;SDS011;61944;52.538;6.108;2023-05-10T08:03:00;10.52;;;5.68;;
73650;SDS011;61944;52.538;6.108;2023-05-10T08:05:26;14.60;;;5.75;;
73650;SDS011;61944;52.538;6.108;2023-05-10T08:07:51;11.40;;;5.97;;
73650;SDS011;61944;52.538;6.108;2023-05-10T08:10:16;11.70;;;5.28;;
73650;SDS011;61944;52.538;6.108;2023-05-10T08:12:42;9.13;;;5.03;;
73650;SDS011;61944;52.538;6.108;2023-05-10T08:15:07;11.82;;;4.95;;
73650;SDS011;61944;52.538;6.108;2023-05-10T08:17:33;10.63;;;4.80;;
73650;SDS011;61944;52.538;6.108;2023-05-10T08:19:59;9.05;;;4.18;;
73650;SDS011;61944;52.538;6.108;2023-05-10T08:22:24;9.35;;;5.13;;
73650;SDS011;61944;52.538;6.108;2023-05-10T08:24:50;7.40;;;3.97;;
73650;SDS011;61944;52.538;6.108;2023-05-10T08:27:15;9.20;;;3.85;;
73650;SDS011;61944;52.538;6.108;2023-05-10T08:29:41;5.88;;;3.88;;
73650;SDS011;61944;52.538;6.108;2023-05-10T08:32:06;6.97;;;3.40;;
73650;SDS011;61944;52.538;6.108;2023-05-10T08:34:31;7.53;;;4.47;;
73650;SDS011;61944;52.538;6.108;2023-05-10T08:36:57;7.40;;;3.90;;
73650;SDS011;61944;52.538;6.108;2023-05-10T08:39:22;9.52;;;3.97;;
73650;SDS011;61944;52.538;6.108;2023-05-10T08:41:48;5.53;;;3.90;;
73650;SDS011;61944;52.538;6.108;2023-05-10T08:44:16;9.38;;;3.67;;
73650;SDS011;61944;52.538;6.108;2023-05-10T08:46:43;5.85;;;3.15;;
73650;SDS011;61944;52.538;6.108;2023-05-10T08:49:12;8.45;;;4.20;;
73650;SDS011;61944;52.538;6.108;2023-05-10T08:51:43;11.13;;;4.30;;
73650;SDS011;61944;52.538;6.108;2023-05-10T08:54:12;9.60;;;5.30;;
73650;SDS011;61944;52.538;6.108;2023-05-10T08:56:37;11.52;;;5.47;;
73650;SDS011;61944;52.538;6.108;2023-05-10T08:59:03;9.60;;;4.45;;
73650;SDS011;61944;52.538;6.108;2023-05-10T09:01:28;8.00;;;4.70;;
73650;SDS011;61944;52.538;6.108;2023-05-10T09:03:56;9.13;;;5.13;;
73650;SDS011;61944;52.538;6.108;2023-05-10T09:06:23;10.25;;;5.90;;
73650;SDS011;61944;52.538;6.108;2023-05-10T09:08:49;10.13;;;4.68;;
73650;SDS011;61944;52.538;6.108;2023-05-10T09:11:15;7.95;;;4.30;;
73650;SDS011;61944;52.538;6.108;2023-05-10T09:13:41;12.95;;;5.78;;
73650;SDS011;61944;52.538;6.108;2023-05-10T09:16:07;9.95;;;5.32;;
73650;SDS011;61944;52.538;6.108;2023-05-10T09:18:32;12.18;;;5.18;;
73650;SDS011;61944;52.538;6.108;2023-05-10T09:20:57;8.52;;;4.50;;
73650;SDS011;61944;52.538;6.108;2023-05-10T09:23:23;9.93;;;4.63;;
73650;SDS011;61944;52.538;6.108;2023-05-10T09:26:03;7.18;;;4.38;;
73650;SDS011;61944;52.538;6.108;2023-05-10T09:28:35;9.55;;;6.00;;
73650;SDS011;61944;52.538;6.108;2023-05-10T09:31:15;8.15;;;4.40;;
73650;SDS011;61944;52.538;6.108;2023-05-10T09:33:44;9.57;;;4.90;;
73650;SDS011;61944;52.538;6.108;2023-05-10T09:36:11;11.38;;;6.03;;
73650;SDS011;61944;52.538;6.108;2023-05-10T09:38:46;14.18;;;7.22;;
73650;SDS011;61944;52.538;6.108;2023-05-10T09:41:22;14.23;;;6.78;;
73650;SDS011;61944;52.538;6.108;2023-05-10T09:43:48;10.23;;;5.57;;
73650;SDS011;61944;52.538;6.108;2023-05-10T09:46:14;8.88;;;5.15;;
73650;SDS011;61944;52.538;6.108;2023-05-10T09:48:41;10.55;;;5.25;;
73650;SDS011;61944;52.538;6.108;2023-05-10T09:51:08;13.07;;;5.97;;
73650;SDS011;61944;52.538;6.108;2023-05-10T09:53:34;13.45;;;6.03;;
73650;SDS011;61944;52.538;6.108;2023-05-10T09:55:59;10.75;;;6.15;;
73650;SDS011;61944;52.538;6.108;2023-05-10T09:58:25;11.75;;;6.25;;
73650;SDS011;61944;52.538;6.108;2023-05-10T10:00:50;11.40;;;5.75;;
73650;SDS011;61944;52.538;6.108;2023-05-10T10:03:18;11.85;;;5.47;;
73650;SDS011;61944;52.538;6.108;2023-05-10T10:05:45;10.77;;;5.45;;
73650;SDS011;61944;52.538;6.108;2023-05-10T10:08:12;15.25;;;6.95;;
73650;SDS011;61944;52.538;6.108;2023-05-10T10:10:38;12.25;;;6.22;;
73650;SDS011;61944;52.538;6.108;2023-05-10T10:13:05;14.23;;;6.28;;
73650;SDS011;61944;52.538;6.108;2023-05-10T10:15:31;9.63;;;5.47;;
73650;SDS011;61944;52.538;6.108;2023-05-10T10:17:58;10.68;;;5.25;;
73650;SDS011;61944;52.538;6.108;2023-05-10T10:20:24;11.85;;;5.22;;
73650;SDS011;61944;52.538;6.108;2023-05-10T10:22:50;14.90;;;6.82;;
73650;SDS011;61944;52.538;6.108;2023-05-10T10:25:16;11.32;;;6.93;;
73650;SDS011;61944;52.538;6.108;2023-05-10T10:35:38;11.55;;;6.30;;
73650;SDS011;61944;52.538;6.108;2023-05-10T10:38:05;12.43;;;6.40;;
73650;SDS011;61944;52.538;6.108;2023-05-10T10:40:33;15.38;;;6.75;;
73650;SDS011;61944;52.538;6.108;2023-05-10T10:43:20;13.10;;;5.93;;
73650;SDS011;61944;52.538;6.108;2023-05-10T10:48:40;11.75;;;6.20;;
73650;SDS011;61944;52.538;6.108;2023-05-10T10:51:07;14.95;;;7.38;;
73650;SDS011;61944;52.538;6.108;2023-05-10T10:53:33;15.10;;;7.97;;
73650;SDS011;61944;52.538;6.108;2023-05-10T10:56:04;14.00;;;7.95;;
73650;SDS011;61944;52.538;6.108;2023-05-10T10:58:35;10.63;;;6.20;;
73650;SDS011;61944;52.538;6.108;2023-05-10T11:01:15;15.35;;;7.72;;
73650;SDS011;61944;52.538;6.108;2023-05-10T11:03:54;16.38;;;6.47;;
73650;SDS011;61944;52.538;6.108;2023-05-10T11:06:39;15.88;;;8.00;;
73650;SDS011;61944;52.538;6.108;2023-05-10T11:09:08;15.63;;;8.18;;
73650;SDS011;61944;52.538;6.108;2023-05-10T11:11:35;14.93;;;7.05;;
73650;SDS011;61944;52.538;6.108;2023-05-10T11:14:05;15.60;;;7.22;;
73650;SDS011;61944;52.538;6.108;2023-05-10T11:16:41;12.80;;;7.47;;
73650;SDS011;61944;52.538;6.108;2023-05-10T11:19:11;14.82;;;7.72;;
73650;SDS011;61944;52.538;6.108;2023-05-10T11:21:51;12.65;;;6.95;;
73650;SDS011;61944;52.538;6.108;2023-05-10T11:24:36;13.15;;;6.53;;
73650;SDS011;61944;52.538;6.108;2023-05-10T11:27:02;15.20;;;8.07;;
73650;SDS011;61944;52.538;6.108;2023-05-10T11:29:31;15.73;;;7.85;;
73650;SDS011;61944;52.538;6.108;2023-05-10T11:31:57;16.65;;;8.50;;
73650;SDS011;61944;52.538;6.108;2023-05-10T11:34:30;15.02;;;7.97;;
73650;SDS011;61944;52.538;6.108;2023-05-10T11:36:59;11.80;;;6.78;;
73650;SDS011;61944;52.538;6.108;2023-05-10T11:39:29;19.25;;;7.85;;
73650;SDS011;61944;52.538;6.108;2023-05-10T11:41:56;12.38;;;6.75;;
73650;SDS011;61944;52.538;6.108;2023-05-10T11:44:22;16.67;;;7.60;;
73650;SDS011;61944;52.538;6.108;2023-05-10T11:46:48;14.27;;;8.55;;
73650;SDS011;61944;52.538;6.108;2023-05-10T11:49:14;13.80;;;7.30;;
73650;SDS011;61944;52.538;6.108;2023-05-10T11:51:39;18.13;;;7.95;;
73650;SDS011;61944;52.538;6.108;2023-05-10T11:54:07;13.25;;;6.53;;
73650;SDS011;61944;52.538;6.108;2023-05-10T11:56:34;13.88;;;7.75;;
73650;SDS011;61944;52.538;6.108;2023-05-10T11:59:03;19.27;;;7.65;;
73650;SDS011;61944;52.538;6.108;2023-05-10T12:01:28;15.82;;;8.27;;
73650;SDS011;61944;52.538;6.108;2023-05-10T12:03:55;20.73;;;9.05;;
73650;SDS011;61944;52.538;6.108;2023-05-10T12:06:31;18.05;;;8.43;;
73650;SDS011;61944;52.538;6.108;2023-05-10T12:09:05;20.60;;;9.38;;
73650;SDS011;61944;52.538;6.108;2023-05-10T12:11:32;17.55;;;8.45;;
73650;SDS011;61944;52.538;6.108;2023-05-10T12:14:03;17.63;;;8.45;;
73650;SDS011;61944;52.538;6.108;2023-05-10T12:16:30;15.18;;;8.02;;
73650;SDS011;61944;52.538;6.108;2023-05-10T12:18:56;17.48;;;8.02;;
73650;SDS011;61944;52.538;6.108;2023-05-10T12:21:22;17.85;;;8.07;;
73650;SDS011;61944;52.538;6.108;2023-05-10T12:23:49;13.10;;;7.35;;
73650;SDS011;61944;52.538;6.108;2023-05-10T12:26:16;11.43;;;7.30;;
73650;SDS011;61944;52.538;6.108;2023-05-10T12:28:42;15.57;;;7.55;;
73650;SDS011;61944;52.538;6.108;2023-05-10T12:31:07;13.90;;;7.28;;
73650;SDS011;61944;52.538;6.108;2023-05-10T12:33:36;14.52;;;7.53;;
73650;SDS011;61944;52.538;6.108;2023-05-10T12:36:09;13.55;;;7.55;;
73650;SDS011;61944;52.538;6.108;2023-05-10T12:38:36;14.77;;;8.07;;
73650;SDS011;61944;52.538;6.108;2023-05-10T12:41:11;12.98;;;6.85;;
73650;SDS011;61944;52.538;6.108;2023-05-10T12:43:38;15.80;;;7.43;;
73650;SDS011;61944;52.538;6.108;2023-05-10T12:46:11;14.18;;;8.48;;
73650;SDS011;61944;52.538;6.108;2023-05-10T12:48:42;14.45;;;7.43;;
73650;SDS011;61944;52.538;6.108;2023-05-10T12:51:09;13.40;;;7.75;;
73650;SDS011;61944;52.538;6.108;2023-05-10T12:53:38;15.23;;;7.53;;
73650;SDS011;61944;52.538;6.108;2023-05-10T12:56:04;15.73;;;7.28;;
73650;SDS011;61944;52.538;6.108;2023-05-10T12:58:30;12.23;;;7.07;;
73650;SDS011;61944;52.538;6.108;2023-05-10T13:00:55;11.88;;;7.53;;
73650;SDS011;61944;52.538;6.108;2023-05-10T13:03:21;13.13;;;6.93;;
73650;SDS011;61944;52.538;6.108;2023-05-10T13:05:47;13.82;;;7.63;;
73650;SDS011;61944;52.538;6.108;2023-05-10T13:08:12;14.30;;;6.72;;
73650;SDS011;61944;52.538;6.108;2023-05-10T13:10:38;13.70;;;6.60;;
73650;SDS011;61944;52.538;6.108;2023-05-10T13:13:03;13.73;;;6.75;;
73650;SDS011;61944;52.538;6.108;2023-05-10T13:15:30;13.82;;;7.10;;
73650;SDS011;61944;52.538;6.108;2023-05-10T13:17:55;15.68;;;8.05;;
73650;SDS011;61944;52.538;6.108;2023-05-10T13:20:20;17.48;;;8.60;;
73650;SDS011;61944;52.538;6.108;2023-05-10T13:22:46;16.08;;;7.95;;
73650;SDS011;61944;52.538;6.108;2023-05-10T13:25:12;15.10;;;8.07;;
73650;SDS011;61944;52.538;6.108;2023-05-10T13:27:39;15.02;;;8.73;;
73650;SDS011;61944;52.538;6.108;2023-05-10T13:30:05;16.33;;;7.80;;
73650;SDS011;61944;52.538;6.108;2023-05-10T13:32:31;15.93;;;7.75;;
73650;SDS011;61944;52.538;6.108;2023-05-10T13:34:56;19.73;;;8.88;;
73650;SDS011;61944;52.538;6.108;2023-05-10T13:37:21;17.70;;;8.48;;
73650;SDS011;61944;52.538;6.108;2023-05-10T13:39:47;14.55;;;6.80;;
73650;SDS011;61944;52.538;6.108;2023-05-10T13:42:13;14.63;;;8.35;;
73650;SDS011;61944;52.538;6.108;2023-05-10T13:44:38;16.35;;;7.97;;
73650;SDS011;61944;52.538;6.108;2023-05-10T13:47:05;15.38;;;7.28;;
73650;SDS011;61944;52.538;6.108;2023-05-10T13:49:30;18.67;;;8.23;;
73650;SDS011;61944;52.538;6.108;2023-05-10T13:51:56;16.50;;;7.18;;
73650;SDS011;61944;52.538;6.108;2023-05-10T13:54:21;16.80;;;8.15;;
73650;SDS011;61944;52.538;6.108;2023-05-10T13:56:47;17.40;;;8.70;;
73650;SDS011;61944;52.538;6.108;2023-05-10T13:59:13;16.48;;;9.02;;
73650;SDS011;61944;52.538;6.108;2023-05-10T14:01:41;15.90;;;7.55;;
73650;SDS011;61944;52.538;6.108;2023-05-10T14:04:07;16.15;;;8.60;;
73650;SDS011;61944;52.538;6.108;2023-05-10T14:06:35;17.25;;;9.75;;
73650;SDS011;61944;52.538;6.108;2023-05-10T14:09:01;21.52;;;9.00;;
73650;SDS011;61944;52.538;6.108;2023-05-10T14:11:27;20.27;;;9.48;;
73650;SDS011;61944;52.538;6.108;2023-05-10T14:13:52;14.45;;;8.65;;
73650;SDS011;61944;52.538;6.108;2023-05-10T14:16:17;13.98;;;7.18;;
73650;SDS011;61944;52.538;6.108;2023-05-10T14:18:44;14.90;;;7.25;;
73650;SDS011;61944;52.538;6.108;2023-05-10T14:21:09;23.73;;;9.20;;
73650;SDS011;61944;52.538;6.108;2023-05-10T14:23:34;19.17;;;7.68;;
73650;SDS011;61944;52.538;6.108;2023-05-10T14:26:00;14.00;;;7.57;;
73650;SDS011;61944;52.538;6.108;2023-05-10T14:28:26;18.88;;;9.07;;
73650;SDS011;61944;52.538;6.108;2023-05-10T14:30:51;18.42;;;6.88;;
73650;SDS011;61944;52.538;6.108;2023-05-10T14:33:17;15.30;;;6.95;;
73650;SDS011;61944;52.538;6.108;2023-05-10T14:35:42;18.42;;;7.95;;
73650;SDS011;61944;52.538;6.108;2023-05-10T14:38:08;16.70;;;8.68;;
73650;SDS011;61944;52.538;6.108;2023-05-10T14:40:33;13.55;;;7.55;;
73650;SDS011;61944;52.538;6.108;2023-05-10T14:42:59;16.80;;;8.20;;
73650;SDS011;61944;52.538;6.108;2023-05-10T14:45:25;11.65;;;6.40;;
73650;SDS011;61944;52.538;6.108;2023-05-10T14:47:50;12.05;;;6.70;;
73650;SDS011;61944;52.538;6.108;2023-05-10T14:50:16;13.88;;;6.78;;
73650;SDS011;61944;52.538;6.108;2023-05-10T14:52:42;13.35;;;7.07;;
73650;SDS011;61944;52.538;6.108;2023-05-10T14:55:08;13.77;;;7.85;;
73650;SDS011;61944;52.538;6.108;2023-05-10T14:57:34;12.93;;;6.78;;
73650;SDS011;61944;52.538;6.108;2023-05-10T14:59:59;14.85;;;6.90;;